Corneel — PB7752 — position and weather

sailwx.info

Track history (hours):
 
Tides and Currents Weather Stations Pressure Air Temp Water Temp Dewpoint Dewpoint Depression Visibility Wind Speed Wind Dir Waves Ship Positions

Corneel

Last reported at 2014-Jul-25 15:20 UTC. Time now 2014-Jul-29 00:45 UTC.
Position N 49°34' W 001°11'.

Length 13 m.

Type: Sailing vessel. MMSI: 244730543.

Date/timePositionNaut miles runAvg speedWind from/ knotsBaromVisibWave heightAir tempDewpointWater temp
2014-Jul-25 15:20N 49°34' W 001°11'10 5.2
2014-Jul-25 13:30N 49°31' W 000°56'31 4.4
2014-Jul-25 06:30N 49°17' W 000°15'0 0.0
2014-Jul-25 03:12N 49°17' W 000°15'0 0.0
2014-Jul-25 02:24N 49°17' W 000°15'0 0.0
2014-Jul-25 01:12N 49°17' W 000°15'0 0.0
2014-Jul-25 00:30N 49°17' W 000°15'0 0.0
2014-Jul-24 23:30N 49°17' W 000°15'0 0.0
2014-Jul-24 22:30N 49°17' W 000°15'0 0.0
2014-Jul-24 21:12N 49°17' W 000°15'0 0.0
2014-Jul-24 20:24N 49°17' W 000°15'0 0.0
2014-Jul-24 19:30N 49°17' W 000°15'0 0.0
2014-Jul-24 18:30N 49°17' W 000°15'0 0.2
2014-Jul-24 17:32N 49°17' W 000°15'0 0.2
2014-Jul-24 16:34N 49°17' W 000°15'0 0.0
2014-Jul-24 15:28N 49°17' W 000°15'0 0.0
2014-Jul-24 14:34N 49°17' W 000°15'0 0.0
2014-Jul-24 13:28N 49°17' W 000°15'0 0.0
2014-Jul-24 12:28N 49°17' W 000°15'2 1.9
2014-Jul-24 11:33N 49°19' W 000°15'4 4.4
2014-Jul-24 10:33N 49°22' W 000°10'5 4.7
2014-Jul-24 09:33N 49°25' W 000°04'3 3.3
2014-Jul-24 08:33N 49°26' E 000°01'5 4.6
2014-Jul-24 07:33N 49°26' E 000°08'  
2014-Jul-21 16:16N 49°25' E 000°14'3 3.8
2014-Jul-21 15:31N 49°26' E 000°10'5 4.7
2014-Jul-21 14:33N 49°27' E 000°03'4 4.3
2014-Jul-21 13:33N 49°31' E 000°01'  
Track history (hours):
 
Tides and Currents Weather Stations Pressure Air Temp Water Temp Dewpoint Dewpoint Depression Visibility Wind Speed Wind Dir Waves Ship Positions

Corneel

Last reported at 2014-Jul-25 15:20 UTC. Time now 2014-Jul-29 00:45 UTC.
Position N 49°34' W 001°11'.

Length 13 m.

Type: Sailing vessel. MMSI: 244730543.

Date/timePositionNaut miles runAvg speedWind from/ knotsBaromVisibWave heightAir tempDewpointWater temp
2014-Jul-25 15:20N 49°34' W 001°11'10 5.2
2014-Jul-25 13:30N 49°31' W 000°56'31 4.4
2014-Jul-25 06:30N 49°17' W 000°15'0 0.0
2014-Jul-25 03:12N 49°17' W 000°15'0 0.0
2014-Jul-25 02:24N 49°17' W 000°15'0 0.0
2014-Jul-25 01:12N 49°17' W 000°15'0 0.0
2014-Jul-25 00:30N 49°17' W 000°15'0 0.0
2014-Jul-24 23:30N 49°17' W 000°15'0 0.0
2014-Jul-24 22:30N 49°17' W 000°15'0 0.0
2014-Jul-24 21:12N 49°17' W 000°15'0 0.0
2014-Jul-24 20:24N 49°17' W 000°15'0 0.0
2014-Jul-24 19:30N 49°17' W 000°15'0 0.0
2014-Jul-24 18:30N 49°17' W 000°15'0 0.2
2014-Jul-24 17:32N 49°17' W 000°15'0 0.2
2014-Jul-24 16:34N 49°17' W 000°15'0 0.0
2014-Jul-24 15:28N 49°17' W 000°15'0 0.0
2014-Jul-24 14:34N 49°17' W 000°15'0 0.0
2014-Jul-24 13:28N 49°17' W 000°15'0 0.0
2014-Jul-24 12:28N 49°17' W 000°15'2 1.9
2014-Jul-24 11:33N 49°19' W 000°15'4 4.4
2014-Jul-24 10:33N 49°22' W 000°10'5 4.7
2014-Jul-24 09:33N 49°25' W 000°04'3 3.3
2014-Jul-24 08:33N 49°26' E 000°01'5 4.6
2014-Jul-24 07:33N 49°26' E 000°08'  
2014-Jul-21 16:16N 49°25' E 000°14'3 3.8
2014-Jul-21 15:31N 49°26' E 000°10'5 4.7
2014-Jul-21 14:33N 49°27' E 000°03'4 4.3
2014-Jul-21 13:33N 49°31' E 000°01'  

Dump ship's entire track history